createdAt,value
2023-03-15T00:00:29.014Z,96211.50
2023-03-15T00:02:55.444Z,96203.00
2023-03-15T00:05:21.989Z,96217.09
2023-03-15T00:07:48.436Z,96225.91
2023-03-15T00:10:14.940Z,96186.72
2023-03-15T00:12:41.422Z,96215.22
2023-03-15T00:15:08.432Z,96213.38
2023-03-15T00:17:34.948Z,96212.56
2023-03-15T00:20:01.557Z,96207.50
2023-03-15T00:22:28.086Z,96206.44
2023-03-15T00:24:54.512Z,96202.44
2023-03-15T00:27:21.192Z,96198.72
2023-03-15T00:29:47.616Z,96222.44
2023-03-15T00:32:14.106Z,96229.09
2023-03-15T00:34:40.549Z,96242.16
2023-03-15T00:37:06.943Z,96237.63
2023-03-15T00:39:33.405Z,96224.03
2023-03-15T00:41:59.914Z,96207.75
2023-03-15T00:44:26.358Z,96252.56
2023-03-15T00:46:52.828Z,96233.63
2023-03-15T00:49:19.351Z,96210.44
2023-03-15T00:51:45.848Z,96239.47
2023-03-15T00:54:12.343Z,96236.56
2023-03-15T00:56:38.757Z,96240.28
2023-03-15T00:59:05.295Z,96216.03
2023-03-15T01:01:31.745Z,96245.38
2023-03-15T01:03:58.218Z,96262.16
2023-03-15T01:06:25.674Z,96238.16
2023-03-15T01:08:52.213Z,96232.03
2023-03-15T01:11:19.385Z,96253.63
2023-03-15T01:13:45.916Z,96264.03
2023-03-15T01:16:12.790Z,96257.91
2023-03-15T01:18:39.408Z,96265.56
2023-03-15T01:21:06.422Z,96268.72
2023-03-15T01:23:32.889Z,96262.84
2023-03-15T01:26:02.569Z,96263.84
2023-03-15T01:28:29.209Z,96261.72
2023-03-15T01:30:55.682Z,96244.97
2023-03-15T01:33:23.344Z,96261.94
2023-03-15T01:35:57.773Z,96260.09
2023-03-15T01:38:24.199Z,96299.75
2023-03-15T01:40:50.613Z,96278.63
2023-03-15T01:43:17.999Z,96267.47
2023-03-15T01:45:54.530Z,96273.13
2023-03-15T01:48:21.361Z,96280.56
2023-03-15T01:50:48.441Z,96274.16
2023-03-15T01:53:14.884Z,96310.28
2023-03-15T01:55:41.296Z,96309.16
2023-03-15T01:58:07.785Z,96296.97
2023-03-15T02:00:34.258Z,96291.75
2023-03-15T02:03:08.688Z,96294.88
2023-03-15T02:05:39.782Z,96299.91
2023-03-15T02:08:06.301Z,96287.41
2023-03-15T02:10:37.493Z,96311.44
2023-03-15T02:13:03.969Z,96326.09
2023-03-15T02:15:30.502Z,96351.31
2023-03-15T02:17:57.121Z,96353.06
2023-03-15T02:20:27.411Z,96338.03
2023-03-15T02:22:55.252Z,96350.94
2023-03-15T02:25:39.743Z,96342.94
2023-03-15T02:28:06.675Z,96361.97
2023-03-15T02:30:33.358Z,96356.22
2023-03-15T02:32:59.955Z,96399.53
2023-03-15T02:35:27.386Z,96373.50
2023-03-15T02:37:53.900Z,96361.63
2023-03-15T02:40:21.131Z,96362.81
2023-03-15T02:42:48.125Z,96362.09
2023-03-15T02:45:14.649Z,96379.50
2023-03-15T02:47:41.198Z,96377.63
2023-03-15T02:50:07.828Z,96373.19
2023-03-15T02:52:34.419Z,96415.22
2023-03-15T02:55:00.838Z,96407.84
2023-03-15T02:57:27.252Z,96419.22
2023-03-15T02:59:53.696Z,96414.38
2023-03-15T03:02:20.185Z,96451.22
2023-03-15T03:04:46.681Z,96447.69
2023-03-15T03:07:13.168Z,96399.88
2023-03-15T03:09:39.598Z,96443.38
2023-03-15T03:12:06.191Z,96449.03
2023-03-15T03:14:32.665Z,96459.53
2023-03-15T03:16:59.154Z,96490.88
2023-03-15T03:19:25.886Z,96459.34
2023-03-15T03:21:52.839Z,96447.09
2023-03-15T03:24:19.200Z,96489.06
2023-03-15T03:26:45.653Z,96512.19
2023-03-15T03:29:12.108Z,96503.91
2023-03-15T03:31:38.883Z,96501.38
2023-03-15T03:34:05.394Z,96495.41
2023-03-15T03:36:31.957Z,96523.38
2023-03-15T03:38:58.417Z,96533.94
2023-03-15T03:41:24.953Z,96528.56
2023-03-15T03:43:51.392Z,96524.91
2023-03-15T03:46:17.808Z,96532.94
2023-03-15T03:48:44.244Z,96557.88
2023-03-15T03:51:10.655Z,96548.59
2023-03-15T03:53:37.114Z,96580.09
2023-03-15T03:56:06.845Z,96572.44
2023-03-15T03:58:33.362Z,96581.13
2023-03-15T04:01:00.221Z,96559.97
2023-03-15T04:03:26.659Z,96585.34
2023-03-15T04:05:56.396Z,96589.91
2023-03-15T04:08:23.177Z,96587.91
2023-03-15T04:10:50.498Z,96603.84
2023-03-15T04:13:17.063Z,96595.88
2023-03-15T04:15:43.525Z,96622.44
2023-03-15T04:18:09.962Z,96616.94
2023-03-15T04:20:36.436Z,96625.72
2023-03-15T04:23:02.922Z,96629.91
2023-03-15T04:25:29.457Z,96611.66
2023-03-15T04:27:55.957Z,96641.50
2023-03-15T04:30:22.401Z,96632.16
2023-03-15T04:32:48.855Z,96675.13
2023-03-15T04:35:15.291Z,96642.72
2023-03-15T04:37:41.784Z,96639.66
2023-03-15T04:40:08.658Z,96643.44
2023-03-15T04:42:35.093Z,96641.75
2023-03-15T04:45:01.588Z,96653.72
2023-03-15T04:47:28.122Z,96668.06
2023-03-15T04:49:54.536Z,96682.94
2023-03-15T04:52:20.957Z,96679.25
2023-03-15T04:54:47.414Z,96694.03
2023-03-15T04:57:13.812Z,96699.69
2023-03-15T04:59:40.231Z,96704.13
2023-03-15T05:02:06.793Z,96703.78
2023-03-15T05:04:33.219Z,96704.44
2023-03-15T05:06:59.722Z,96718.75
2023-03-15T05:09:26.184Z,96700.22
2023-03-15T05:11:52.698Z,96712.91
2023-03-15T05:14:19.185Z,96712.63
2023-03-15T05:16:45.699Z,96730.41
2023-03-15T05:19:12.133Z,96739.66
2023-03-15T05:21:38.551Z,96722.91
2023-03-15T05:24:05.169Z,96750.50
2023-03-15T05:26:31.677Z,96751.72
2023-03-15T05:28:58.184Z,96748.13
2023-03-15T05:31:24.743Z,96747.34
2023-03-15T05:33:51.356Z,96781.78
2023-03-15T05:36:17.775Z,96814.47
2023-03-15T05:38:45.690Z,96786.97
2023-03-15T05:41:12.357Z,96821.81
2023-03-15T05:43:38.922Z,96805.31
2023-03-15T05:46:05.646Z,96819.84
2023-03-15T05:48:32.134Z,96806.09
2023-03-15T05:50:59.057Z,96819.31
2023-03-15T05:53:25.472Z,96830.88
2023-03-15T05:55:51.883Z,96842.53
2023-03-15T05:58:18.975Z,96822.34
2023-03-15T06:00:45.442Z,96828.00
2023-03-15T06:03:11.995Z,96822.81
2023-03-15T06:05:39.015Z,96828.94
2023-03-15T06:08:05.453Z,96845.66
2023-03-15T06:10:31.937Z,96852.97
2023-03-15T06:12:59.054Z,96861.41
2023-03-15T06:15:25.941Z,96844.47
2023-03-15T06:17:52.332Z,96870.41
2023-03-15T06:20:18.891Z,96848.03
2023-03-15T06:22:45.311Z,96870.75
2023-03-15T06:25:11.956Z,96873.06
2023-03-15T06:27:38.651Z,96886.44
2023-03-15T06:30:05.357Z,96873.75
2023-03-15T06:32:31.790Z,96876.50
2023-03-15T06:34:58.213Z,96910.56
2023-03-15T06:37:34.640Z,96921.19
2023-03-15T06:40:05.546Z,96921.00
2023-03-15T06:42:33.592Z,96908.91
2023-03-15T06:45:00.940Z,96902.41
2023-03-15T06:47:27.944Z,96894.09
2023-03-15T06:49:55.412Z,96914.47
2023-03-15T06:52:23.216Z,96915.00
2023-03-15T06:54:49.599Z,96888.06
2023-03-15T06:57:18.215Z,96911.22
2023-03-15T06:59:44.690Z,96901.00
2023-03-15T07:02:16.585Z,96877.06
2023-03-15T07:04:43.877Z,96937.63
2023-03-15T07:07:12.922Z,96903.06
2023-03-15T07:09:39.900Z,96954.56
2023-03-15T07:12:06.535Z,96937.75
2023-03-15T07:14:36.088Z,96935.28
2023-03-15T07:17:03.888Z,96932.03
2023-03-15T07:19:30.374Z,96921.63
2023-03-15T07:21:56.840Z,96951.22
2023-03-15T07:24:23.218Z,96964.91
2023-03-15T07:26:50.548Z,96978.16
2023-03-15T07:29:17.028Z,96986.72
2023-03-15T07:31:43.538Z,96954.41
2023-03-15T07:34:09.961Z,96962.38
2023-03-15T07:36:36.871Z,96969.16
2023-03-15T07:39:03.350Z,96985.44
2023-03-15T07:41:29.747Z,96985.00
2023-03-15T07:43:58.488Z,96987.63
2023-03-15T07:46:25.109Z,96973.69
2023-03-15T07:48:51.546Z,96970.69
2023-03-15T07:51:19.838Z,97000.84
2023-03-15T07:53:46.816Z,97019.03
2023-03-15T07:56:13.243Z,97003.44
2023-03-15T07:58:39.600Z,97000.53
2023-03-15T08:01:05.992Z,96985.66
2023-03-15T08:03:32.379Z,97002.72
2023-03-15T08:05:58.875Z,97013.78
2023-03-15T08:08:25.808Z,97014.91
2023-03-15T08:10:52.217Z,96983.13
2023-03-15T08:13:18.669Z,96996.03
2023-03-15T08:15:45.652Z,96991.22
2023-03-15T08:18:12.089Z,96971.13
2023-03-15T08:20:38.622Z,96989.50
2023-03-15T08:23:05.033Z,97027.78
2023-03-15T08:25:31.489Z,97005.50
2023-03-15T08:27:57.892Z,97035.34
2023-03-15T08:30:24.292Z,96996.41
2023-03-15T08:32:52.452Z,97018.84
2023-03-15T08:35:20.940Z,97008.69
2023-03-15T08:37:47.344Z,97017.00
2023-03-15T08:40:14.513Z,97012.53
2023-03-15T08:42:40.957Z,96990.06
2023-03-15T08:45:08.190Z,97010.59
2023-03-15T08:47:34.861Z,97027.09
2023-03-15T08:50:02.077Z,97020.75
2023-03-15T08:52:28.575Z,97001.56
2023-03-15T08:54:54.923Z,96998.91
2023-03-15T08:57:21.358Z,96999.00
2023-03-15T08:59:47.851Z,97014.84
2023-03-15T09:02:14.351Z,97000.53
2023-03-15T09:04:41.017Z,97005.13
2023-03-15T09:07:07.594Z,96988.91
2023-03-15T09:09:34.079Z,97023.88
2023-03-15T09:12:01.670Z,97044.66
2023-03-15T09:14:28.110Z,97004.78
2023-03-15T09:16:54.731Z,96984.78
2023-03-15T09:19:21.253Z,97022.97
2023-03-15T09:21:47.804Z,97009.81
2023-03-15T09:24:14.369Z,97027.09
2023-03-15T09:26:40.808Z,97005.44
2023-03-15T09:29:07.326Z,97036.50
2023-03-15T09:31:33.825Z,97024.78
2023-03-15T09:34:00.232Z,97022.34
2023-03-15T09:36:26.663Z,97016.84
2023-03-15T09:38:53.628Z,97003.22
2023-03-15T09:41:25.773Z,97021.69
2023-03-15T09:44:16.632Z,97018.91
2023-03-15T09:46:55.352Z,97026.34
2023-03-15T09:49:32.612Z,97072.94
2023-03-15T09:52:32.622Z,97046.88
2023-03-15T09:55:00.241Z,97013.56
2023-03-15T09:57:30.714Z,97002.88
2023-03-15T09:59:57.684Z,97047.91
2023-03-15T10:02:25.482Z,97052.13
2023-03-15T10:04:52.324Z,97022.19
2023-03-15T10:07:18.830Z,97028.66
2023-03-15T10:09:45.374Z,97033.75
2023-03-15T10:12:12.550Z,97052.28
2023-03-15T10:14:59.272Z,97050.69
2023-03-15T10:17:41.664Z,97044.84
2023-03-15T10:20:18.982Z,97043.91
2023-03-15T10:23:06.849Z,97046.78
2023-03-15T10:25:33.375Z,97040.31
2023-03-15T10:27:59.882Z,97054.59
2023-03-15T10:30:30.301Z,97050.81
2023-03-15T10:33:04.061Z,97047.34
2023-03-15T10:35:30.651Z,97044.19
2023-03-15T10:37:57.544Z,97051.44
2023-03-15T10:40:42.810Z,97064.09
2023-03-15T10:43:25.533Z,97064.78
2023-03-15T10:45:58.071Z,97088.91
2023-03-15T10:48:25.837Z,97052.53
2023-03-15T10:50:54.532Z,97053.81
2023-03-15T10:53:21.029Z,97039.69
2023-03-15T10:55:47.701Z,97060.84
2023-03-15T10:58:20.248Z,97056.22
2023-03-15T11:00:53.681Z,97048.66
2023-03-15T11:03:21.244Z,97047.31
2023-03-15T11:05:48.612Z,97034.78
2023-03-15T11:08:18.926Z,97039.81
2023-03-15T11:10:45.952Z,97026.72
2023-03-15T11:13:22.229Z,97026.50
2023-03-15T11:16:07.457Z,97023.16
2023-03-15T11:18:38.979Z,97007.50
2023-03-15T11:21:06.887Z,97020.25
2023-03-15T11:23:37.165Z,96997.41
2023-03-15T11:26:03.691Z,97009.59
2023-03-15T11:28:31.450Z,97016.97
2023-03-15T11:30:59.451Z,97008.16
2023-03-15T11:33:25.840Z,97021.03
2023-03-15T11:35:52.324Z,96989.22
2023-03-15T11:38:23.453Z,97007.94
2023-03-15T11:40:59.180Z,96995.38
2023-03-15T11:43:41.442Z,96994.13
2023-03-15T11:46:13.512Z,96985.34
2023-03-15T11:48:39.980Z,96993.41
2023-03-15T11:51:08.416Z,96992.00
2023-03-15T11:53:35.941Z,96987.19
2023-03-15T11:56:22.550Z,96971.56
2023-03-15T11:59:05.630Z,96982.75
2023-03-15T12:01:33.214Z,96967.47
2023-03-15T12:04:18.907Z,96972.16
2023-03-15T12:06:45.934Z,96990.81
2023-03-15T12:09:48.003Z,96987.84
2023-03-15T12:12:26.569Z,96978.22
2023-03-15T12:15:06.426Z,96977.13
2023-03-15T12:17:37.809Z,96975.50
2023-03-15T12:20:17.813Z,96971.31
2023-03-15T12:22:48.367Z,96950.56
2023-03-15T12:25:17.986Z,96949.91
2023-03-15T12:27:48.897Z,96974.66
2023-03-15T12:30:18.766Z,96946.19
2023-03-15T12:32:46.551Z,96938.25
2023-03-15T12:35:16.385Z,96957.53
2023-03-15T12:37:43.803Z,96944.44
2023-03-15T12:40:18.080Z,96943.34
2023-03-15T12:42:47.284Z,96953.25
2023-03-15T12:45:17.350Z,96939.25
2023-03-15T12:47:46.871Z,96930.72
2023-03-15T12:50:32.590Z,96952.91
2023-03-15T12:52:59.826Z,96945.22
2023-03-15T12:55:29.265Z,96932.31
2023-03-15T12:57:55.932Z,96970.28
2023-03-15T13:00:22.577Z,96951.88
2023-03-15T13:02:50.307Z,96956.78
2023-03-15T13:05:16.712Z,96986.34
2023-03-15T13:07:54.001Z,96938.28
2023-03-15T13:10:31.269Z,96944.00
2023-03-15T13:13:03.426Z,96969.19
2023-03-15T13:15:31.241Z,96949.47
2023-03-15T13:17:57.923Z,96946.94
2023-03-15T13:20:43.215Z,96968.91
2023-03-15T13:23:26.388Z,96953.31
2023-03-15T13:25:52.768Z,96943.88
2023-03-15T13:28:27.268Z,96958.13
2023-03-15T13:30:54.018Z,96961.31
2023-03-15T13:33:24.618Z,96960.97
2023-03-15T13:36:01.321Z,96958.88
2023-03-15T13:38:29.158Z,96955.88
2023-03-15T13:40:56.228Z,96944.50
2023-03-15T13:43:28.211Z,96935.41
2023-03-15T13:45:57.208Z,96971.97
2023-03-15T13:48:23.666Z,96959.72
2023-03-15T13:50:50.259Z,96988.59
2023-03-15T13:53:18.865Z,96986.50
2023-03-15T13:55:49.319Z,96984.63
2023-03-15T13:58:15.702Z,96980.34
2023-03-15T14:00:42.118Z,96980.13
2023-03-15T14:03:11.249Z,96985.72
2023-03-15T14:05:44.587Z,96979.03
2023-03-15T14:08:22.330Z,97005.56
2023-03-15T14:11:07.371Z,96979.84
2023-03-15T14:13:34.545Z,96999.91
2023-03-15T14:16:07.859Z,97018.34
2023-03-15T14:18:35.345Z,97023.16
2023-03-15T14:21:03.154Z,97028.25
2023-03-15T14:23:29.826Z,97025.09
2023-03-15T14:26:00.041Z,97034.22
2023-03-15T14:28:26.549Z,97032.00
2023-03-15T14:30:56.720Z,97024.50
2023-03-15T14:33:40.138Z,97017.03
2023-03-15T14:36:09.938Z,97021.00
2023-03-15T14:38:38.736Z,97037.81
2023-03-15T14:41:23.324Z,97017.44
2023-03-15T14:43:49.824Z,97014.47
2023-03-15T14:46:16.655Z,97025.66
2023-03-15T14:48:43.216Z,97030.53
2023-03-15T14:51:13.781Z,97018.13
2023-03-15T14:53:40.398Z,97033.22
2023-03-15T14:56:07.081Z,97032.41
2023-03-15T14:58:33.556Z,97015.06
2023-03-15T15:01:01.874Z,97029.22
2023-03-15T15:03:36.073Z,97043.31
2023-03-15T15:06:02.545Z,97035.25
2023-03-15T15:08:29.083Z,97044.19
2023-03-15T15:10:55.904Z,97046.19
2023-03-15T15:13:24.094Z,97039.75
2023-03-15T15:15:56.085Z,97045.19
2023-03-15T15:18:26.607Z,97042.59
2023-03-15T15:20:53.534Z,97034.56
2023-03-15T15:23:20.779Z,97041.84
2023-03-15T15:25:47.369Z,97025.28
2023-03-15T15:28:23.918Z,97029.94
2023-03-15T15:31:00.048Z,97067.69
2023-03-15T15:33:26.470Z,97061.81
2023-03-15T15:35:53.882Z,97050.47
2023-03-15T15:38:21.061Z,97043.41
2023-03-15T15:40:47.587Z,97029.53
2023-03-15T15:43:13.999Z,97033.16
2023-03-15T15:45:40.492Z,97059.44
2023-03-15T15:48:06.955Z,97033.13
2023-03-15T15:50:33.664Z,97042.06
2023-03-15T15:53:01.377Z,97043.81
2023-03-15T15:55:28.613Z,97032.28
2023-03-15T15:57:55.110Z,97050.91
2023-03-15T16:00:22.544Z,97064.69
2023-03-15T16:02:49.090Z,97043.22
2023-03-15T16:05:15.499Z,97056.97
2023-03-15T16:07:42.016Z,97041.56
2023-03-15T16:10:08.744Z,97064.28
2023-03-15T16:12:35.217Z,97059.22
2023-03-15T16:15:01.603Z,97072.84
2023-03-15T16:17:28.983Z,97062.31
2023-03-15T16:19:55.379Z,97069.22
2023-03-15T16:22:22.522Z,97074.94
2023-03-15T16:24:50.297Z,97065.09
2023-03-15T16:27:17.932Z,97092.75
2023-03-15T16:29:45.104Z,97084.66
2023-03-15T16:32:20.631Z,97062.41
2023-03-15T16:34:49.909Z,97076.69
2023-03-15T16:37:17.005Z,97076.31
2023-03-15T16:39:44.524Z,97090.28
2023-03-15T16:42:11.584Z,97087.47
2023-03-15T16:44:37.979Z,97085.59
2023-03-15T16:47:04.412Z,97072.41
2023-03-15T16:49:30.859Z,97105.38
2023-03-15T16:51:57.304Z,97109.16
2023-03-15T16:54:39.966Z,97112.44
2023-03-15T16:57:20.906Z,97116.34
2023-03-15T16:59:47.348Z,97098.69
2023-03-15T17:02:20.818Z,97117.56
2023-03-15T17:04:47.397Z,97114.59
2023-03-15T17:07:13.968Z,97112.25
2023-03-15T17:09:41.333Z,97141.41
2023-03-15T17:12:12.455Z,97145.03
2023-03-15T17:14:38.953Z,97137.94
2023-03-15T17:17:05.537Z,97155.78
2023-03-15T17:19:32.063Z,97136.06
2023-03-15T17:21:58.838Z,97164.34
2023-03-15T17:24:25.249Z,97159.75
2023-03-15T17:26:51.662Z,97138.66
2023-03-15T17:29:18.118Z,97161.13
2023-03-15T17:31:44.627Z,97163.28
2023-03-15T17:34:11.172Z,97163.72
2023-03-15T17:36:37.660Z,97153.69
2023-03-15T17:39:04.820Z,97181.69
2023-03-15T17:41:31.622Z,97178.59
2023-03-15T17:43:58.036Z,97176.41
2023-03-15T17:46:25.082Z,97179.22
2023-03-15T17:48:51.802Z,97190.78
2023-03-15T17:51:21.641Z,97199.69
2023-03-15T17:53:48.063Z,97197.69
2023-03-15T17:56:14.478Z,97189.88
2023-03-15T17:58:41.003Z,97211.38
2023-03-15T18:01:14.537Z,97193.03
2023-03-15T18:03:41.025Z,97211.25
2023-03-15T18:06:09.425Z,97196.53
2023-03-15T18:08:35.936Z,97202.84
2023-03-15T18:11:02.740Z,97213.97
2023-03-15T18:13:29.159Z,97233.63
2023-03-15T18:15:55.614Z,97223.50
2023-03-15T18:18:22.763Z,97236.19
2023-03-15T18:20:49.121Z,97214.47
2023-03-15T18:23:15.731Z,97231.00
2023-03-15T18:25:42.263Z,97210.47
2023-03-15T18:28:08.772Z,97213.34
2023-03-15T18:30:35.306Z,97225.41
2023-03-15T18:33:01.821Z,97239.41
2023-03-15T18:35:29.428Z,97220.78
2023-03-15T18:37:55.850Z,97233.16
2023-03-15T18:40:22.212Z,97225.78
2023-03-15T18:42:48.762Z,97221.97
2023-03-15T18:45:22.617Z,97223.13
2023-03-15T18:47:49.822Z,97244.72
2023-03-15T18:50:16.383Z,97228.69
2023-03-15T18:52:42.811Z,97237.81
2023-03-15T18:55:11.825Z,97237.00
2023-03-15T18:57:38.668Z,97233.50
2023-03-15T19:00:05.280Z,97229.47
2023-03-15T19:02:32.724Z,97238.03
2023-03-15T19:04:59.163Z,97240.22
2023-03-15T19:07:25.567Z,97235.47
2023-03-15T19:09:52.008Z,97240.78
2023-03-15T19:12:18.478Z,97233.41
2023-03-15T19:14:45.220Z,97228.69
2023-03-15T19:17:11.855Z,97228.53
2023-03-15T19:19:38.638Z,97249.13
2023-03-15T19:22:05.076Z,97251.63
2023-03-15T19:24:31.578Z,97249.84
2023-03-15T19:26:58.042Z,97244.53
2023-03-15T19:29:24.551Z,97259.31
2023-03-15T19:31:51.019Z,97259.97
2023-03-15T19:34:17.362Z,97250.00
2023-03-15T19:36:43.904Z,97294.25
2023-03-15T19:39:10.610Z,97277.06
2023-03-15T19:41:37.072Z,97272.78
2023-03-15T19:44:03.579Z,97268.81
2023-03-15T19:46:30.141Z,97274.34
2023-03-15T19:48:56.890Z,97266.53
2023-03-15T19:51:23.401Z,97283.25
2023-03-15T19:53:49.809Z,97265.34
2023-03-15T19:56:16.649Z,97259.19
2023-03-15T19:58:43.076Z,97287.31
2023-03-15T20:01:09.665Z,97272.50
2023-03-15T20:03:36.192Z,97283.94
2023-03-15T20:06:10.043Z,97294.41
2023-03-15T20:08:36.549Z,97292.00
2023-03-15T20:11:03.024Z,97297.25
2023-03-15T20:13:30.006Z,97289.91
2023-03-15T20:15:56.504Z,97306.56
2023-03-15T20:18:23.066Z,97299.53
2023-03-15T20:20:50.475Z,97305.00
2023-03-15T20:23:17.087Z,97319.25
2023-03-15T20:25:43.567Z,97313.31
2023-03-15T20:28:10.331Z,97290.09
2023-03-15T20:30:40.002Z,97325.41
2023-03-15T20:33:06.844Z,97310.16
2023-03-15T20:35:34.458Z,97314.06
2023-03-15T20:38:00.982Z,97325.13
2023-03-15T20:40:27.481Z,97345.38
2023-03-15T20:42:53.913Z,97308.91
2023-03-15T20:45:20.318Z,97328.16
2023-03-15T20:47:46.994Z,97330.28
2023-03-15T20:50:13.575Z,97323.03
2023-03-15T20:52:40.098Z,97320.25
2023-03-15T20:55:06.723Z,97319.38
2023-03-15T20:57:33.309Z,97331.72
2023-03-15T20:59:59.790Z,97337.16
2023-03-15T21:02:26.457Z,97336.47
2023-03-15T21:04:52.895Z,97321.63
2023-03-15T21:07:19.477Z,97346.31
2023-03-15T21:09:45.984Z,97335.97
2023-03-15T21:12:12.580Z,97347.47
2023-03-15T21:14:38.989Z,97349.50
2023-03-15T21:17:05.426Z,97360.38
2023-03-15T21:19:32.264Z,97343.16
2023-03-15T21:21:58.779Z,97339.94
2023-03-15T21:24:25.191Z,97349.75
2023-03-15T21:26:53.686Z,97351.00
2023-03-15T21:29:20.327Z,97349.19
2023-03-15T21:31:46.997Z,97335.03
2023-03-15T21:34:13.448Z,97353.53
2023-03-15T21:36:39.860Z,97378.13
2023-03-15T21:39:07.805Z,97343.91
2023-03-15T21:41:34.428Z,97340.03
2023-03-15T21:44:01.149Z,97352.91
2023-03-15T21:46:27.604Z,97348.66
2023-03-15T21:48:54.016Z,97372.88
2023-03-15T21:51:20.475Z,97369.63
2023-03-15T21:53:46.942Z,97339.19
2023-03-15T21:56:13.331Z,97363.75
2023-03-15T21:58:39.962Z,97361.00
2023-03-15T22:01:06.812Z,97352.06
2023-03-15T22:03:33.755Z,97359.56
2023-03-15T22:06:00.204Z,97363.25
2023-03-15T22:08:26.736Z,97375.06
2023-03-15T22:10:53.920Z,97358.75
2023-03-15T22:13:20.528Z,97345.31
2023-03-15T22:15:47.307Z,97377.72
2023-03-15T22:18:13.742Z,97376.50
2023-03-15T22:20:40.131Z,97360.84
2023-03-15T22:23:06.504Z,97368.56
2023-03-15T22:25:32.919Z,97358.00
2023-03-15T22:27:59.442Z,97368.56
2023-03-15T22:30:26.037Z,97372.22
2023-03-15T22:32:52.799Z,97374.09
2023-03-15T22:35:19.303Z,97389.97
2023-03-15T22:37:45.803Z,97368.00
2023-03-15T22:40:12.468Z,97417.84
2023-03-15T22:42:38.872Z,97358.25
2023-03-15T22:45:05.664Z,97401.38
2023-03-15T22:47:32.190Z,97396.88
2023-03-15T22:49:58.696Z,97395.91
2023-03-15T22:52:28.138Z,97408.28
2023-03-15T22:54:54.630Z,97399.53
2023-03-15T22:57:21.040Z,97408.50
2023-03-15T22:59:47.427Z,97395.50
2023-03-15T23:02:13.819Z,97377.41
2023-03-15T23:04:40.565Z,97381.25
2023-03-15T23:07:07.164Z,97388.59
2023-03-15T23:09:33.651Z,97394.69
2023-03-15T23:12:00.105Z,97380.66
2023-03-15T23:14:26.488Z,97402.84
2023-03-15T23:16:52.934Z,97351.38
2023-03-15T23:19:20.254Z,97400.78
2023-03-15T23:21:46.736Z,97397.34
2023-03-15T23:24:13.171Z,97395.94
2023-03-15T23:26:39.656Z,97421.56
2023-03-15T23:29:06.142Z,97397.75
2023-03-15T23:31:32.609Z,97410.16
2023-03-15T23:33:59.116Z,97401.22
2023-03-15T23:36:25.509Z,97412.38
2023-03-15T23:38:51.967Z,97379.66
2023-03-15T23:41:18.400Z,97403.66
2023-03-15T23:43:44.822Z,97412.75
2023-03-15T23:46:11.291Z,97410.94
2023-03-15T23:48:37.731Z,97426.41
2023-03-15T23:51:04.222Z,97396.50
2023-03-15T23:53:30.721Z,97395.28
2023-03-15T23:55:57.137Z,97416.16
2023-03-15T23:58:23.617Z,97435.91
